sensor_id;sensor_type;location;lat;lon;timestamp;temperature;humidity
8261;DHT22;64115;50.170;8.242;2023-04-25T00:00:59;6.10;99.90
8261;DHT22;64115;50.170;8.242;2023-04-25T00:03:27;6.20;99.90
8261;DHT22;64115;50.170;8.242;2023-04-25T00:05:55;6.10;99.90
8261;DHT22;64115;50.170;8.242;2023-04-25T00:08:22;6.10;99.90
8261;DHT22;64115;50.170;8.242;2023-04-25T00:10:50;6.00;99.90
8261;DHT22;64115;50.170;8.242;2023-04-25T00:13:17;6.00;99.90
8261;DHT22;64115;50.170;8.242;2023-04-25T00:15:46;6.00;99.90
8261;DHT22;64115;50.170;8.242;2023-04-25T00:18:13;5.90;99.90
8261;DHT22;64115;50.170;8.242;2023-04-25T00:20:41;5.90;99.90
8261;DHT22;64115;50.170;8.242;2023-04-25T00:23:12;5.80;99.90
8261;DHT22;64115;50.170;8.242;2023-04-25T00:25:43;5.80;99.90
8261;DHT22;64115;50.170;8.242;2023-04-25T00:28:10;5.90;99.90
8261;DHT22;64115;50.170;8.242;2023-04-25T00:30:38;5.90;99.90
8261;DHT22;64115;50.170;8.242;2023-04-25T00:33:07;5.80;99.90
8261;DHT22;64115;50.170;8.242;2023-04-25T00:35:34;5.80;99.90
8261;DHT22;64115;50.170;8.242;2023-04-25T00:38:02;5.80;99.90
8261;DHT22;64115;50.170;8.242;2023-04-25T00:40:29;5.80;99.90
8261;DHT22;64115;50.170;8.242;2023-04-25T00:42:56;5.80;99.90
8261;DHT22;64115;50.170;8.242;2023-04-25T00:45:28;5.80;99.90
8261;DHT22;64115;50.170;8.242;2023-04-25T00:47:56;5.80;99.90
8261;DHT22;64115;50.170;8.242;2023-04-25T00:50:24;5.70;99.90
8261;DHT22;64115;50.170;8.242;2023-04-25T00:52:52;5.70;99.90
8261;DHT22;64115;50.170;8.242;2023-04-25T00:55:19;5.60;99.90
8261;DHT22;64115;50.170;8.242;2023-04-25T00:57:47;5.60;99.90
8261;DHT22;64115;50.170;8.242;2023-04-25T01:00:14;5.60;99.90
8261;DHT22;64115;50.170;8.242;2023-04-25T01:02:41;5.70;99.90
8261;DHT22;64115;50.170;8.242;2023-04-25T01:05:09;5.70;99.90
8261;DHT22;64115;50.170;8.242;2023-04-25T01:07:37;5.70;99.90
8261;DHT22;64115;50.170;8.242;2023-04-25T01:10:05;5.70;99.90
8261;DHT22;64115;50.170;8.242;2023-04-25T01:12:33;5.70;99.90
8261;DHT22;64115;50.170;8.242;2023-04-25T01:15:01;5.60;99.90
8261;DHT22;64115;50.170;8.242;2023-04-25T01:17:29;5.60;99.90
8261;DHT22;64115;50.170;8.242;2023-04-25T01:19:57;5.60;99.90
8261;DHT22;64115;50.170;8.242;2023-04-25T01:22:25;5.60;99.90
8261;DHT22;64115;50.170;8.242;2023-04-25T01:24:53;5.60;99.90
8261;DHT22;64115;50.170;8.242;2023-04-25T01:27:21;5.60;99.90
8261;DHT22;64115;50.170;8.242;2023-04-25T01:29:48;5.60;99.90
8261;DHT22;64115;50.170;8.242;2023-04-25T01:32:17;5.60;99.90
8261;DHT22;64115;50.170;8.242;2023-04-25T01:34:44;5.50;99.90
8261;DHT22;64115;50.170;8.242;2023-04-25T01:37:11;5.40;99.90
8261;DHT22;64115;50.170;8.242;2023-04-25T01:39:40;5.40;99.90
8261;DHT22;64115;50.170;8.242;2023-04-25T01:42:07;5.40;99.90
8261;DHT22;64115;50.170;8.242;2023-04-25T01:44:35;5.40;99.90
8261;DHT22;64115;50.170;8.242;2023-04-25T01:47:02;5.40;99.90
8261;DHT22;64115;50.170;8.242;2023-04-25T01:49:29;5.40;99.90
8261;DHT22;64115;50.170;8.242;2023-04-25T01:51:56;5.40;99.90
8261;DHT22;64115;50.170;8.242;2023-04-25T01:54:23;5.30;99.90
8261;DHT22;64115;50.170;8.242;2023-04-25T01:56:52;5.30;99.90
8261;DHT22;64115;50.170;8.242;2023-04-25T01:59:19;5.20;99.90
8261;DHT22;64115;50.170;8.242;2023-04-25T02:01:47;5.20;99.90
8261;DHT22;64115;50.170;8.242;2023-04-25T02:04:14;5.20;99.90
8261;DHT22;64115;50.170;8.242;2023-04-25T02:06:41;5.20;99.90
8261;DHT22;64115;50.170;8.242;2023-04-25T02:09:08;5.20;99.90
8261;DHT22;64115;50.170;8.242;2023-04-25T02:11:35;5.20;99.90
8261;DHT22;64115;50.170;8.242;2023-04-25T02:14:04;5.10;99.90
8261;DHT22;64115;50.170;8.242;2023-04-25T02:16:31;5.10;99.90
8261;DHT22;64115;50.170;8.242;2023-04-25T02:18:58;5.10;99.90
8261;DHT22;64115;50.170;8.242;2023-04-25T02:21:25;5.10;99.90
8261;DHT22;64115;50.170;8.242;2023-04-25T02:23:52;5.10;99.90
8261;DHT22;64115;50.170;8.242;2023-04-25T02:26:19;5.10;99.90
8261;DHT22;64115;50.170;8.242;2023-04-25T02:28:48;5.00;99.90
8261;DHT22;64115;50.170;8.242;2023-04-25T02:31:16;5.00;99.90
8261;DHT22;64115;50.170;8.242;2023-04-25T02:33:44;5.00;99.90
8261;DHT22;64115;50.170;8.242;2023-04-25T02:36:11;4.90;99.90
8261;DHT22;64115;50.170;8.242;2023-04-25T02:38:38;4.90;99.90
8261;DHT22;64115;50.170;8.242;2023-04-25T02:41:05;4.90;99.90
8261;DHT22;64115;50.170;8.242;2023-04-25T02:43:32;4.90;99.90
8261;DHT22;64115;50.170;8.242;2023-04-25T02:46:00;4.80;99.90
8261;DHT22;64115;50.170;8.242;2023-04-25T02:48:28;4.80;99.90
8261;DHT22;64115;50.170;8.242;2023-04-25T02:50:56;4.80;99.90
8261;DHT22;64115;50.170;8.242;2023-04-25T02:53:23;4.70;99.90
8261;DHT22;64115;50.170;8.242;2023-04-25T02:55:50;4.70;99.90
8261;DHT22;64115;50.170;8.242;2023-04-25T02:58:18;4.60;99.90
8261;DHT22;64115;50.170;8.242;2023-04-25T03:00:45;4.50;99.90
8261;DHT22;64115;50.170;8.242;2023-04-25T03:03:12;4.50;99.90
8261;DHT22;64115;50.170;8.242;2023-04-25T03:05:41;4.40;99.90
8261;DHT22;64115;50.170;8.242;2023-04-25T03:08:09;4.30;99.90
8261;DHT22;64115;50.170;8.242;2023-04-25T03:10:36;4.20;99.90
8261;DHT22;64115;50.170;8.242;2023-04-25T03:13:03;4.20;99.90
8261;DHT22;64115;50.170;8.242;2023-04-25T03:15:30;4.10;99.90
8261;DHT22;64115;50.170;8.242;2023-04-25T03:17:57;4.00;99.90
8261;DHT22;64115;50.170;8.242;2023-04-25T03:20:24;3.90;99.90
8261;DHT22;64115;50.170;8.242;2023-04-25T03:22:53;3.90;99.90
8261;DHT22;64115;50.170;8.242;2023-04-25T03:25:20;3.80;99.90
8261;DHT22;64115;50.170;8.242;2023-04-25T03:27:47;3.80;99.90
8261;DHT22;64115;50.170;8.242;2023-04-25T03:30:14;3.70;99.90
8261;DHT22;64115;50.170;8.242;2023-04-25T03:32:41;3.70;99.90
8261;DHT22;64115;50.170;8.242;2023-04-25T03:35:09;3.60;99.90
8261;DHT22;64115;50.170;8.242;2023-04-25T03:37:36;3.60;99.90
8261;DHT22;64115;50.170;8.242;2023-04-25T03:40:06;3.60;99.90
8261;DHT22;64115;50.170;8.242;2023-04-25T03:42:33;3.50;99.90
8261;DHT22;64115;50.170;8.242;2023-04-25T03:45:01;3.50;99.90
8261;DHT22;64115;50.170;8.242;2023-04-25T03:47:28;3.40;99.90
8261;DHT22;64115;50.170;8.242;2023-04-25T03:49:55;3.40;99.90
8261;DHT22;64115;50.170;8.242;2023-04-25T03:52:22;3.30;99.90
8261;DHT22;64115;50.170;8.242;2023-04-25T03:54:50;3.20;99.90
8261;DHT22;64115;50.170;8.242;2023-04-25T03:57:18;3.20;99.90
8261;DHT22;64115;50.170;8.242;2023-04-25T03:59:46;3.10;99.90
8261;DHT22;64115;50.170;8.242;2023-04-25T04:02:13;3.10;99.90
8261;DHT22;64115;50.170;8.242;2023-04-25T04:04:40;3.10;99.90
8261;DHT22;64115;50.170;8.242;2023-04-25T04:07:09;3.00;99.90
8261;DHT22;64115;50.170;8.242;2023-04-25T04:09:37;3.00;99.90
8261;DHT22;64115;50.170;8.242;2023-04-25T04:12:04;3.10;99.90
8261;DHT22;64115;50.170;8.242;2023-04-25T04:14:33;3.10;99.90
8261;DHT22;64115;50.170;8.242;2023-04-25T04:17:00;3.20;99.90
8261;DHT22;64115;50.170;8.242;2023-04-25T04:19:27;3.30;99.90
8261;DHT22;64115;50.170;8.242;2023-04-25T04:21:54;3.40;99.90
8261;DHT22;64115;50.170;8.242;2023-04-25T04:24:21;3.40;99.90
8261;DHT22;64115;50.170;8.242;2023-04-25T04:26:48;3.40;99.90
8261;DHT22;64115;50.170;8.242;2023-04-25T04:29:16;3.30;99.90
8261;DHT22;64115;50.170;8.242;2023-04-25T04:31:49;3.30;99.90
8261;DHT22;64115;50.170;8.242;2023-04-25T04:34:16;3.30;99.90
8261;DHT22;64115;50.170;8.242;2023-04-25T04:36:43;3.30;99.90
8261;DHT22;64115;50.170;8.242;2023-04-25T04:39:11;3.30;99.90
8261;DHT22;64115;50.170;8.242;2023-04-25T04:41:38;3.30;99.90
8261;DHT22;64115;50.170;8.242;2023-04-25T04:44:06;3.30;99.90
8261;DHT22;64115;50.170;8.242;2023-04-25T04:46:34;3.30;99.90
8261;DHT22;64115;50.170;8.242;2023-04-25T04:49:08;3.30;99.90
8261;DHT22;64115;50.170;8.242;2023-04-25T04:51:35;3.20;99.90
8261;DHT22;64115;50.170;8.242;2023-04-25T04:54:02;3.20;99.90
8261;DHT22;64115;50.170;8.242;2023-04-25T04:56:30;3.30;99.90
8261;DHT22;64115;50.170;8.242;2023-04-25T04:58:57;3.30;99.90
8261;DHT22;64115;50.170;8.242;2023-04-25T05:01:25;3.30;99.90
8261;DHT22;64115;50.170;8.242;2023-04-25T05:03:53;3.30;99.90
8261;DHT22;64115;50.170;8.242;2023-04-25T05:06:27;3.40;99.90
8261;DHT22;64115;50.170;8.242;2023-04-25T05:08:56;3.40;99.90
8261;DHT22;64115;50.170;8.242;2023-04-25T05:11:23;3.50;99.90
8261;DHT22;64115;50.170;8.242;2023-04-25T05:13:51;3.60;99.90
8261;DHT22;64115;50.170;8.242;2023-04-25T05:16:19;3.70;99.90
8261;DHT22;64115;50.170;8.242;2023-04-25T05:18:47;3.80;99.90
8261;DHT22;64115;50.170;8.242;2023-04-25T05:21:14;3.90;99.90
8261;DHT22;64115;50.170;8.242;2023-04-25T05:23:43;3.90;99.90
8261;DHT22;64115;50.170;8.242;2023-04-25T05:26:10;3.90;99.90
8261;DHT22;64115;50.170;8.242;2023-04-25T05:28:39;4.00;99.90
8261;DHT22;64115;50.170;8.242;2023-04-25T05:31:06;4.00;99.90
8261;DHT22;64115;50.170;8.242;2023-04-25T05:33:33;4.00;99.90
8261;DHT22;64115;50.170;8.242;2023-04-25T05:36:01;3.90;99.90
8261;DHT22;64115;50.170;8.242;2023-04-25T05:38:28;3.90;99.90
8261;DHT22;64115;50.170;8.242;2023-04-25T05:40:57;3.90;99.90
8261;DHT22;64115;50.170;8.242;2023-04-25T05:43:27;3.90;99.90
8261;DHT22;64115;50.170;8.242;2023-04-25T05:45:54;4.00;99.90
8261;DHT22;64115;50.170;8.242;2023-04-25T05:48:22;4.10;99.90
8261;DHT22;64115;50.170;8.242;2023-04-25T05:50:49;4.20;99.90
8261;DHT22;64115;50.170;8.242;2023-04-25T05:53:17;4.30;99.90
8261;DHT22;64115;50.170;8.242;2023-04-25T05:55:46;4.40;99.90
8261;DHT22;64115;50.170;8.242;2023-04-25T05:58:28;4.60;99.90
8261;DHT22;64115;50.170;8.242;2023-04-25T06:00:57;4.70;99.90
8261;DHT22;64115;50.170;8.242;2023-04-25T06:03:24;4.90;99.90
8261;DHT22;64115;50.170;8.242;2023-04-25T06:05:51;5.10;99.90
8261;DHT22;64115;50.170;8.242;2023-04-25T06:08:18;5.20;99.90
8261;DHT22;64115;50.170;8.242;2023-04-25T06:10:45;5.30;99.90
8261;DHT22;64115;50.170;8.242;2023-04-25T06:13:12;5.50;99.90
8261;DHT22;64115;50.170;8.242;2023-04-25T06:15:42;6.00;99.90
8261;DHT22;64115;50.170;8.242;2023-04-25T06:18:09;6.50;99.90
8261;DHT22;64115;50.170;8.242;2023-04-25T06:20:36;6.90;99.90
8261;DHT22;64115;50.170;8.242;2023-04-25T06:23:03;7.20;99.90
8261;DHT22;64115;50.170;8.242;2023-04-25T06:25:30;7.50;99.90
8261;DHT22;64115;50.170;8.242;2023-04-25T06:27:57;7.70;99.90
8261;DHT22;64115;50.170;8.242;2023-04-25T06:30:25;7.40;99.90
8261;DHT22;64115;50.170;8.242;2023-04-25T06:32:54;7.40;99.90
8261;DHT22;64115;50.170;8.242;2023-04-25T06:35:21;7.20;99.90
8261;DHT22;64115;50.170;8.242;2023-04-25T06:37:48;7.10;99.90
8261;DHT22;64115;50.170;8.242;2023-04-25T06:40:15;7.00;99.90
8261;DHT22;64115;50.170;8.242;2023-04-25T06:42:42;6.90;99.90
8261;DHT22;64115;50.170;8.242;2023-04-25T06:45:10;7.00;99.90
8261;DHT22;64115;50.170;8.242;2023-04-25T06:47:37;7.30;99.90
8261;DHT22;64115;50.170;8.242;2023-04-25T06:50:07;7.30;99.90
8261;DHT22;64115;50.170;8.242;2023-04-25T06:52:34;7.50;99.90
8261;DHT22;64115;50.170;8.242;2023-04-25T06:55:01;7.20;99.90
8261;DHT22;64115;50.170;8.242;2023-04-25T06:57:30;7.30;99.90
8261;DHT22;64115;50.170;8.242;2023-04-25T06:59:57;7.50;99.90
8261;DHT22;64115;50.170;8.242;2023-04-25T07:02:24;7.60;99.90
8261;DHT22;64115;50.170;8.242;2023-04-25T07:04:51;7.60;99.90
8261;DHT22;64115;50.170;8.242;2023-04-25T07:07:20;7.50;99.90
8261;DHT22;64115;50.170;8.242;2023-04-25T07:09:47;7.30;99.90
8261;DHT22;64115;50.170;8.242;2023-04-25T07:12:14;7.40;99.90
8261;DHT22;64115;50.170;8.242;2023-04-25T07:14:41;7.30;99.90
8261;DHT22;64115;50.170;8.242;2023-04-25T07:17:08;7.60;99.90
8261;DHT22;64115;50.170;8.242;2023-04-25T07:19:35;7.90;99.90
8261;DHT22;64115;50.170;8.242;2023-04-25T07:22:04;7.90;99.90
8261;DHT22;64115;50.170;8.242;2023-04-25T07:24:32;7.80;99.90
8261;DHT22;64115;50.170;8.242;2023-04-25T07:26:59;7.70;99.90
8261;DHT22;64115;50.170;8.242;2023-04-25T07:29:29;7.60;99.90
8261;DHT22;64115;50.170;8.242;2023-04-25T07:31:57;7.50;99.90
8261;DHT22;64115;50.170;8.242;2023-04-25T07:34:24;7.50;99.90
8261;DHT22;64115;50.170;8.242;2023-04-25T07:36:51;7.60;99.90
8261;DHT22;64115;50.170;8.242;2023-04-25T07:39:19;7.50;99.90
8261;DHT22;64115;50.170;8.242;2023-04-25T07:41:48;7.80;99.90
8261;DHT22;64115;50.170;8.242;2023-04-25T07:44:15;8.20;99.90
8261;DHT22;64115;50.170;8.242;2023-04-25T07:46:41;8.60;99.90
8261;DHT22;64115;50.170;8.242;2023-04-25T07:49:09;9.00;99.90
8261;DHT22;64115;50.170;8.242;2023-04-25T07:51:36;9.30;99.90
8261;DHT22;64115;50.170;8.242;2023-04-25T07:54:03;9.40;99.90
8261;DHT22;64115;50.170;8.242;2023-04-25T07:56:31;9.40;99.90
8261;DHT22;64115;50.170;8.242;2023-04-25T07:59:00;9.20;99.90
8261;DHT22;64115;50.170;8.242;2023-04-25T08:01:27;9.20;99.90
8261;DHT22;64115;50.170;8.242;2023-04-25T08:03:54;9.10;99.90
8261;DHT22;64115;50.170;8.242;2023-04-25T08:06:21;8.90;99.90
8261;DHT22;64115;50.170;8.242;2023-04-25T08:08:48;8.60;99.90
8261;DHT22;64115;50.170;8.242;2023-04-25T08:11:15;8.30;99.90
8261;DHT22;64115;50.170;8.242;2023-04-25T08:13:42;8.10;99.90
8261;DHT22;64115;50.170;8.242;2023-04-25T08:16:10;8.10;99.90
8261;DHT22;64115;50.170;8.242;2023-04-25T08:18:37;7.90;99.90
8261;DHT22;64115;50.170;8.242;2023-04-25T08:21:04;7.90;99.90
8261;DHT22;64115;50.170;8.242;2023-04-25T08:23:32;7.80;99.90
8261;DHT22;64115;50.170;8.242;2023-04-25T08:25:59;7.80;99.90
8261;DHT22;64115;50.170;8.242;2023-04-25T08:28:26;7.70;99.90
8261;DHT22;64115;50.170;8.242;2023-04-25T08:30:54;7.60;99.90
8261;DHT22;64115;50.170;8.242;2023-04-25T08:33:22;7.50;99.90
8261;DHT22;64115;50.170;8.242;2023-04-25T08:35:50;7.50;99.90
8261;DHT22;64115;50.170;8.242;2023-04-25T08:38:17;7.50;99.90
8261;DHT22;64115;50.170;8.242;2023-04-25T08:40:49;7.70;99.90
8261;DHT22;64115;50.170;8.242;2023-04-25T08:43:19;8.00;99.90
8261;DHT22;64115;50.170;8.242;2023-04-25T08:45:46;8.30;99.90
8261;DHT22;64115;50.170;8.242;2023-04-25T08:48:15;8.00;99.90
8261;DHT22;64115;50.170;8.242;2023-04-25T08:50:48;7.90;99.90
8261;DHT22;64115;50.170;8.242;2023-04-25T08:53:18;7.80;99.90
8261;DHT22;64115;50.170;8.242;2023-04-25T08:55:48;7.80;99.90
8261;DHT22;64115;50.170;8.242;2023-04-25T08:58:18;7.80;99.90
8261;DHT22;64115;50.170;8.242;2023-04-25T09:00:46;7.80;99.90
8261;DHT22;64115;50.170;8.242;2023-04-25T09:03:13;7.80;99.90
8261;DHT22;64115;50.170;8.242;2023-04-25T09:05:41;8.00;99.90
8261;DHT22;64115;50.170;8.242;2023-04-25T09:08:10;8.20;99.90
8261;DHT22;64115;50.170;8.242;2023-04-25T09:10:38;8.60;99.90
8261;DHT22;64115;50.170;8.242;2023-04-25T09:13:06;8.60;99.90
8261;DHT22;64115;50.170;8.242;2023-04-25T09:15:47;8.40;99.90
8261;DHT22;64115;50.170;8.242;2023-04-25T09:18:22;8.60;99.90
8261;DHT22;64115;50.170;8.242;2023-04-25T09:20:52;8.80;99.90
8261;DHT22;64115;50.170;8.242;2023-04-25T09:23:22;8.60;99.90
8261;DHT22;64115;50.170;8.242;2023-04-25T09:25:51;8.40;99.90
8261;DHT22;64115;50.170;8.242;2023-04-25T09:28:23;8.10;99.90
8261;DHT22;64115;50.170;8.242;2023-04-25T09:30:54;7.90;99.90
8261;DHT22;64115;50.170;8.242;2023-04-25T09:33:28;7.80;99.90
8261;DHT22;64115;50.170;8.242;2023-04-25T09:36:02;7.60;99.90
8261;DHT22;64115;50.170;8.242;2023-04-25T09:38:32;7.60;99.90
8261;DHT22;64115;50.170;8.242;2023-04-25T09:41:00;7.80;99.90
8261;DHT22;64115;50.170;8.242;2023-04-25T09:43:27;8.00;99.90
8261;DHT22;64115;50.170;8.242;2023-04-25T09:45:55;8.20;99.90
8261;DHT22;64115;50.170;8.242;2023-04-25T09:48:26;8.30;99.90
8261;DHT22;64115;50.170;8.242;2023-04-25T09:51:07;8.50;99.90
8261;DHT22;64115;50.170;8.242;2023-04-25T09:53:38;8.90;99.90
8261;DHT22;64115;50.170;8.242;2023-04-25T09:56:07;9.60;99.90
8261;DHT22;64115;50.170;8.242;2023-04-25T09:58:35;10.30;99.90
8261;DHT22;64115;50.170;8.242;2023-04-25T10:01:05;10.20;99.90
8261;DHT22;64115;50.170;8.242;2023-04-25T10:03:34;10.40;99.90
8261;DHT22;64115;50.170;8.242;2023-04-25T10:06:03;10.30;99.90
8261;DHT22;64115;50.170;8.242;2023-04-25T10:08:32;10.10;99.90
8261;DHT22;64115;50.170;8.242;2023-04-25T10:11:03;9.90;99.90
8261;DHT22;64115;50.170;8.242;2023-04-25T10:13:31;9.90;99.90
8261;DHT22;64115;50.170;8.242;2023-04-25T10:15:59;9.60;99.90
8261;DHT22;64115;50.170;8.242;2023-04-25T10:18:28;9.30;99.90
8261;DHT22;64115;50.170;8.242;2023-04-25T10:20:59;9.20;99.90
8261;DHT22;64115;50.170;8.242;2023-04-25T10:23:27;9.00;99.90
8261;DHT22;64115;50.170;8.242;2023-04-25T10:25:56;9.10;99.90
8261;DHT22;64115;50.170;8.242;2023-04-25T10:28:25;9.20;99.90
8261;DHT22;64115;50.170;8.242;2023-04-25T10:30:59;9.20;99.90
8261;DHT22;64115;50.170;8.242;2023-04-25T10:33:43;9.10;99.90
8261;DHT22;64115;50.170;8.242;2023-04-25T10:36:17;9.00;99.90
8261;DHT22;64115;50.170;8.242;2023-04-25T10:38:46;8.90;99.90
8261;DHT22;64115;50.170;8.242;2023-04-25T10:41:14;8.80;99.90
8261;DHT22;64115;50.170;8.242;2023-04-25T10:43:44;8.70;99.90
8261;DHT22;64115;50.170;8.242;2023-04-25T10:46:15;8.70;99.90
8261;DHT22;64115;50.170;8.242;2023-04-25T10:48:48;8.50;99.90
8261;DHT22;64115;50.170;8.242;2023-04-25T10:51:21;8.40;99.90
8261;DHT22;64115;50.170;8.242;2023-04-25T10:53:57;8.40;99.90
8261;DHT22;64115;50.170;8.242;2023-04-25T10:56:26;8.50;99.90
8261;DHT22;64115;50.170;8.242;2023-04-25T10:59:05;8.60;99.90
8261;DHT22;64115;50.170;8.242;2023-04-25T11:01:36;8.60;99.90
8261;DHT22;64115;50.170;8.242;2023-04-25T11:04:05;8.60;99.90
8261;DHT22;64115;50.170;8.242;2023-04-25T11:06:42;8.70;99.90
8261;DHT22;64115;50.170;8.242;2023-04-25T11:09:13;8.80;99.90
8261;DHT22;64115;50.170;8.242;2023-04-25T11:11:41;8.80;99.90
8261;DHT22;64115;50.170;8.242;2023-04-25T11:14:09;9.00;99.90
8261;DHT22;64115;50.170;8.242;2023-04-25T11:16:36;9.00;99.90
8261;DHT22;64115;50.170;8.242;2023-04-25T11:19:03;9.00;99.90
8261;DHT22;64115;50.170;8.242;2023-04-25T11:21:31;9.20;99.90
8261;DHT22;64115;50.170;8.242;2023-04-25T11:23:59;9.40;99.90
8261;DHT22;64115;50.170;8.242;2023-04-25T11:26:27;9.70;99.90
8261;DHT22;64115;50.170;8.242;2023-04-25T11:28:57;9.80;99.90
8261;DHT22;64115;50.170;8.242;2023-04-25T11:31:27;10.10;99.90
8261;DHT22;64115;50.170;8.242;2023-04-25T11:33:56;10.10;99.90
8261;DHT22;64115;50.170;8.242;2023-04-25T11:36:23;10.10;99.90
8261;DHT22;64115;50.170;8.242;2023-04-25T11:38:51;10.20;99.90
8261;DHT22;64115;50.170;8.242;2023-04-25T11:41:18;10.20;99.90
8261;DHT22;64115;50.170;8.242;2023-04-25T11:43:46;10.40;99.90
8261;DHT22;64115;50.170;8.242;2023-04-25T11:46:14;10.30;99.90
8261;DHT22;64115;50.170;8.242;2023-04-25T11:48:43;10.30;99.90
8261;DHT22;64115;50.170;8.242;2023-04-25T11:51:10;10.00;99.90
8261;DHT22;64115;50.170;8.242;2023-04-25T11:53:41;9.60;99.90
8261;DHT22;64115;50.170;8.242;2023-04-25T11:56:09;9.40;99.90
8261;DHT22;64115;50.170;8.242;2023-04-25T11:58:55;9.20;99.90
8261;DHT22;64115;50.170;8.242;2023-04-25T12:01:27;8.90;99.90
8261;DHT22;64115;50.170;8.242;2023-04-25T12:03:56;8.90;99.90
8261;DHT22;64115;50.170;8.242;2023-04-25T12:06:26;8.80;99.90
8261;DHT22;64115;50.170;8.242;2023-04-25T12:09:03;9.00;99.90
8261;DHT22;64115;50.170;8.242;2023-04-25T12:11:31;8.90;99.90
8261;DHT22;64115;50.170;8.242;2023-04-25T12:14:02;9.00;99.90
8261;DHT22;64115;50.170;8.242;2023-04-25T12:16:40;9.10;99.90
8261;DHT22;64115;50.170;8.242;2023-04-25T12:19:09;9.20;99.90
8261;DHT22;64115;50.170;8.242;2023-04-25T12:21:37;9.40;99.90
8261;DHT22;64115;50.170;8.242;2023-04-25T12:24:11;9.40;99.90
8261;DHT22;64115;50.170;8.242;2023-04-25T12:26:49;9.40;99.90
8261;DHT22;64115;50.170;8.242;2023-04-25T12:29:21;9.40;99.90
8261;DHT22;64115;50.170;8.242;2023-04-25T12:31:49;9.10;99.90
8261;DHT22;64115;50.170;8.242;2023-04-25T12:34:19;9.40;99.90
8261;DHT22;64115;50.170;8.242;2023-04-25T12:36:46;10.00;99.90
8261;DHT22;64115;50.170;8.242;2023-04-25T12:39:15;10.20;99.90
8261;DHT22;64115;50.170;8.242;2023-04-25T12:41:42;10.40;99.90
8261;DHT22;64115;50.170;8.242;2023-04-25T12:44:10;10.50;99.90
8261;DHT22;64115;50.170;8.242;2023-04-25T12:46:37;10.70;99.90
8261;DHT22;64115;50.170;8.242;2023-04-25T12:49:04;10.80;99.90
8261;DHT22;64115;50.170;8.242;2023-04-25T12:51:34;10.80;99.90
8261;DHT22;64115;50.170;8.242;2023-04-25T12:54:02;10.60;99.90
8261;DHT22;64115;50.170;8.242;2023-04-25T12:56:30;10.60;99.90
8261;DHT22;64115;50.170;8.242;2023-04-25T12:58:57;10.60;99.90
8261;DHT22;64115;50.170;8.242;2023-04-25T13:01:25;10.60;99.90
8261;DHT22;64115;50.170;8.242;2023-04-25T13:03:52;10.50;99.90
8261;DHT22;64115;50.170;8.242;2023-04-25T13:06:20;10.20;99.90
8261;DHT22;64115;50.170;8.242;2023-04-25T13:08:49;9.90;99.90
8261;DHT22;64115;50.170;8.242;2023-04-25T13:11:16;9.70;99.90
8261;DHT22;64115;50.170;8.242;2023-04-25T13:13:44;9.60;99.90
8261;DHT22;64115;50.170;8.242;2023-04-25T13:16:11;9.50;99.90
8261;DHT22;64115;50.170;8.242;2023-04-25T13:18:39;9.50;99.90
8261;DHT22;64115;50.170;8.242;2023-04-25T13:21:07;9.70;99.90
8261;DHT22;64115;50.170;8.242;2023-04-25T13:23:36;10.00;99.90
8261;DHT22;64115;50.170;8.242;2023-04-25T13:26:05;10.20;99.90
8261;DHT22;64115;50.170;8.242;2023-04-25T13:28:31;10.20;99.90
8261;DHT22;64115;50.170;8.242;2023-04-25T13:30:59;10.00;99.90
8261;DHT22;64115;50.170;8.242;2023-04-25T13:33:26;10.00;99.90
8261;DHT22;64115;50.170;8.242;2023-04-25T13:35:53;10.10;99.90
8261;DHT22;64115;50.170;8.242;2023-04-25T13:38:22;10.10;99.90
8261;DHT22;64115;50.170;8.242;2023-04-25T13:40:49;10.20;99.90
8261;DHT22;64115;50.170;8.242;2023-04-25T13:43:20;10.30;99.90
8261;DHT22;64115;50.170;8.242;2023-04-25T13:45:47;10.10;99.90
8261;DHT22;64115;50.170;8.242;2023-04-25T13:48:14;9.80;99.90
8261;DHT22;64115;50.170;8.242;2023-04-25T13:50:41;9.50;99.90
8261;DHT22;64115;50.170;8.242;2023-04-25T13:53:08;9.50;99.90
8261;DHT22;64115;50.170;8.242;2023-04-25T13:55:36;9.90;99.90
8261;DHT22;64115;50.170;8.242;2023-04-25T13:58:04;10.30;99.90
8261;DHT22;64115;50.170;8.242;2023-04-25T14:00:36;10.40;99.90
8261;DHT22;64115;50.170;8.242;2023-04-25T14:03:06;10.30;99.90
8261;DHT22;64115;50.170;8.242;2023-04-25T14:05:34;10.00;99.90
8261;DHT22;64115;50.170;8.242;2023-04-25T14:08:05;9.70;99.90
8261;DHT22;64115;50.170;8.242;2023-04-25T14:10:33;9.50;99.90
8261;DHT22;64115;50.170;8.242;2023-04-25T14:13:00;9.50;99.90
8261;DHT22;64115;50.170;8.242;2023-04-25T14:15:29;9.40;99.90
8261;DHT22;64115;50.170;8.242;2023-04-25T14:17:59;9.30;99.90
8261;DHT22;64115;50.170;8.242;2023-04-25T14:20:27;9.10;99.90
8261;DHT22;64115;50.170;8.242;2023-04-25T14:22:54;9.00;99.90
8261;DHT22;64115;50.170;8.242;2023-04-25T14:25:23;9.00;99.90
8261;DHT22;64115;50.170;8.242;2023-04-25T14:27:50;8.90;99.90
8261;DHT22;64115;50.170;8.242;2023-04-25T14:30:18;8.90;99.90
8261;DHT22;64115;50.170;8.242;2023-04-25T14:32:46;8.70;99.90
8261;DHT22;64115;50.170;8.242;2023-04-25T14:35:14;8.50;99.90
8261;DHT22;64115;50.170;8.242;2023-04-25T14:37:41;8.40;99.90
8261;DHT22;64115;50.170;8.242;2023-04-25T14:40:09;8.60;99.90
8261;DHT22;64115;50.170;8.242;2023-04-25T14:42:37;8.70;99.90
8261;DHT22;64115;50.170;8.242;2023-04-25T14:45:07;8.80;99.90
8261;DHT22;64115;50.170;8.242;2023-04-25T14:47:34;9.00;99.90
8261;DHT22;64115;50.170;8.242;2023-04-25T14:50:01;9.10;99.90
8261;DHT22;64115;50.170;8.242;2023-04-25T14:52:31;9.10;99.90
8261;DHT22;64115;50.170;8.242;2023-04-25T14:54:58;9.30;99.90
8261;DHT22;64115;50.170;8.242;2023-04-25T14:57:30;9.50;99.90
8261;DHT22;64115;50.170;8.242;2023-04-25T14:59:57;9.70;99.90
8261;DHT22;64115;50.170;8.242;2023-04-25T15:02:24;9.60;99.90
8261;DHT22;64115;50.170;8.242;2023-04-25T15:04:51;9.50;99.90
8261;DHT22;64115;50.170;8.242;2023-04-25T15:07:18;9.40;99.90
8261;DHT22;64115;50.170;8.242;2023-04-25T15:09:47;9.40;99.90
8261;DHT22;64115;50.170;8.242;2023-04-25T15:12:14;9.50;99.90
8261;DHT22;64115;50.170;8.242;2023-04-25T15:14:41;9.50;99.90
8261;DHT22;64115;50.170;8.242;2023-04-25T15:17:08;9.50;99.90
8261;DHT22;64115;50.170;8.242;2023-04-25T15:19:35;9.50;99.90
8261;DHT22;64115;50.170;8.242;2023-04-25T15:22:02;9.50;99.90
8261;DHT22;64115;50.170;8.242;2023-04-25T15:24:30;9.70;99.90
8261;DHT22;64115;50.170;8.242;2023-04-25T15:26:58;10.00;99.90
8261;DHT22;64115;50.170;8.242;2023-04-25T15:29:25;9.70;99.90
8261;DHT22;64115;50.170;8.242;2023-04-25T15:31:52;9.60;99.90
8261;DHT22;64115;50.170;8.242;2023-04-25T15:34:19;9.80;99.90
8261;DHT22;64115;50.170;8.242;2023-04-25T15:36:46;10.00;99.90
8261;DHT22;64115;50.170;8.242;2023-04-25T15:39:13;10.40;99.90
8261;DHT22;64115;50.170;8.242;2023-04-25T15:41:40;11.00;99.90
8261;DHT22;64115;50.170;8.242;2023-04-25T15:44:09;11.40;99.90
8261;DHT22;64115;50.170;8.242;2023-04-25T15:46:36;11.20;99.20
8261;DHT22;64115;50.170;8.242;2023-04-25T15:49:03;10.90;99.70
8261;DHT22;64115;50.170;8.242;2023-04-25T15:51:30;10.80;99.90
8261;DHT22;64115;50.170;8.242;2023-04-25T15:53:58;11.40;99.00
8261;DHT22;64115;50.170;8.242;2023-04-25T15:56:27;12.00;98.70
8261;DHT22;64115;50.170;8.242;2023-04-25T15:58:53;12.70;98.10
8261;DHT22;64115;50.170;8.242;2023-04-25T16:01:22;12.80;96.30
8261;DHT22;64115;50.170;8.242;2023-04-25T16:03:50;12.60;96.80
8261;DHT22;64115;50.170;8.242;2023-04-25T16:06:17;13.10;96.10